sensor_id;sensor_type;location;lat;lon;timestamp;P1;durP1;ratioP1;P2;durP2;ratioP2
35681;SDS011;21805;51.022;4.782;2023-08-21T00:01:23;14.93;;;2.65;;
35681;SDS011;21805;51.022;4.782;2023-08-21T00:03:54;11.90;;;2.55;;
35681;SDS011;21805;51.022;4.782;2023-08-21T00:06:29;7.30;;;2.13;;
35681;SDS011;21805;51.022;4.782;2023-08-21T00:09:23;12.52;;;2.45;;
35681;SDS011;21805;51.022;4.782;2023-08-21T00:15:07;8.07;;;2.20;;
35681;SDS011;21805;51.022;4.782;2023-08-21T00:17:43;9.75;;;2.30;;
35681;SDS011;21805;51.022;4.782;2023-08-21T00:20:31;11.30;;;2.53;;
35681;SDS011;21805;51.022;4.782;2023-08-21T00:23:08;7.15;;;1.98;;
35681;SDS011;21805;51.022;4.782;2023-08-21T00:25:39;11.27;;;2.28;;
35681;SDS011;21805;51.022;4.782;2023-08-21T00:28:17;8.88;;;2.30;;
35681;SDS011;21805;51.022;4.782;2023-08-21T00:31:02;8.98;;;2.33;;
35681;SDS011;21805;51.022;4.782;2023-08-21T00:33:55;12.82;;;2.53;;
35681;SDS011;21805;51.022;4.782;2023-08-21T00:36:33;8.32;;;2.35;;
35681;SDS011;21805;51.022;4.782;2023-08-21T00:39:04;14.35;;;2.55;;
35681;SDS011;21805;51.022;4.782;2023-08-21T00:41:43;6.35;;;2.00;;
35681;SDS011;21805;51.022;4.782;2023-08-21T00:44:36;9.18;;;2.28;;
35681;SDS011;21805;51.022;4.782;2023-08-21T00:47:53;13.85;;;2.45;;
35681;SDS011;21805;51.022;4.782;2023-08-21T00:50:53;9.77;;;2.10;;
35681;SDS011;21805;51.022;4.782;2023-08-21T00:53:36;13.60;;;2.83;;
35681;SDS011;21805;51.022;4.782;2023-08-21T00:56:21;12.88;;;2.40;;
35681;SDS011;21805;51.022;4.782;2023-08-21T00:58:55;10.75;;;2.10;;
35681;SDS011;21805;51.022;4.782;2023-08-21T01:01:24;8.13;;;2.30;;
35681;SDS011;21805;51.022;4.782;2023-08-21T01:04:23;8.90;;;2.35;;
35681;SDS011;21805;51.022;4.782;2023-08-21T01:06:56;10.52;;;2.20;;
35681;SDS011;21805;51.022;4.782;2023-08-21T01:15:55;8.55;;;2.25;;
35681;SDS011;21805;51.022;4.782;2023-08-21T01:18:55;10.77;;;2.45;;
35681;SDS011;21805;51.022;4.782;2023-08-21T01:21:50;7.70;;;2.28;;
35681;SDS011;21805;51.022;4.782;2023-08-21T01:24:24;11.50;;;2.60;;
35681;SDS011;21805;51.022;4.782;2023-08-21T01:27:02;12.02;;;2.67;;
35681;SDS011;21805;51.022;4.782;2023-08-21T01:37:44;9.77;;;2.33;;
35681;SDS011;21805;51.022;4.782;2023-08-21T01:40:46;11.82;;;2.90;;
35681;SDS011;21805;51.022;4.782;2023-08-21T01:52:43;11.15;;;2.42;;
35681;SDS011;21805;51.022;4.782;2023-08-21T01:55:47;12.98;;;2.90;;
35681;SDS011;21805;51.022;4.782;2023-08-21T01:58:25;13.75;;;2.35;;
35681;SDS011;21805;51.022;4.782;2023-08-21T02:00:55;9.98;;;2.47;;
35681;SDS011;21805;51.022;4.782;2023-08-21T02:09:27;10.98;;;2.60;;
35681;SDS011;21805;51.022;4.782;2023-08-21T02:11:59;11.52;;;2.42;;
35681;SDS011;21805;51.022;4.782;2023-08-21T02:14:25;10.68;;;2.75;;
35681;SDS011;21805;51.022;4.782;2023-08-21T02:16:52;9.73;;;2.80;;
35681;SDS011;21805;51.022;4.782;2023-08-21T02:19:18;9.50;;;2.67;;
35681;SDS011;21805;51.022;4.782;2023-08-21T02:24:15;10.38;;;2.97;;
35681;SDS011;21805;51.022;4.782;2023-08-21T02:29:14;13.00;;;3.13;;
35681;SDS011;21805;51.022;4.782;2023-08-21T02:34:09;12.27;;;2.80;;
35681;SDS011;21805;51.022;4.782;2023-08-21T02:39:07;8.18;;;2.53;;
35681;SDS011;21805;51.022;4.782;2023-08-21T02:41:38;10.52;;;2.85;;
35681;SDS011;21805;51.022;4.782;2023-08-21T02:44:07;10.20;;;2.50;;
35681;SDS011;21805;51.022;4.782;2023-08-21T02:46:33;9.75;;;2.80;;
35681;SDS011;21805;51.022;4.782;2023-08-21T02:49:01;9.23;;;2.72;;
35681;SDS011;21805;51.022;4.782;2023-08-21T02:51:27;10.13;;;2.55;;
35681;SDS011;21805;51.022;4.782;2023-08-21T02:53:57;8.07;;;2.47;;
35681;SDS011;21805;51.022;4.782;2023-08-21T02:56:25;10.57;;;2.47;;
35681;SDS011;21805;51.022;4.782;2023-08-21T02:58:53;7.82;;;2.53;;
35681;SDS011;21805;51.022;4.782;2023-08-21T03:03:51;10.10;;;2.75;;
35681;SDS011;21805;51.022;4.782;2023-08-21T03:06:17;11.88;;;2.67;;
35681;SDS011;21805;51.022;4.782;2023-08-21T03:08:43;10.73;;;2.65;;
35681;SDS011;21805;51.022;4.782;2023-08-21T03:16:19;12.82;;;3.15;;
35681;SDS011;21805;51.022;4.782;2023-08-21T03:21:34;10.98;;;2.70;;
35681;SDS011;21805;51.022;4.782;2023-08-21T03:24:00;13.80;;;2.63;;
35681;SDS011;21805;51.022;4.782;2023-08-21T03:26:28;9.43;;;2.35;;
35681;SDS011;21805;51.022;4.782;2023-08-21T03:31:26;10.53;;;3.03;;
35681;SDS011;21805;51.022;4.782;2023-08-21T03:36:23;9.18;;;2.63;;
35681;SDS011;21805;51.022;4.782;2023-08-21T03:38:59;17.50;;;2.78;;
35681;SDS011;21805;51.022;4.782;2023-08-21T03:41:28;8.82;;;2.40;;
35681;SDS011;21805;51.022;4.782;2023-08-21T03:48:52;8.43;;;2.55;;
35681;SDS011;21805;51.022;4.782;2023-08-21T03:53:50;9.25;;;2.83;;
35681;SDS011;21805;51.022;4.782;2023-08-21T03:56:16;11.15;;;2.65;;
35681;SDS011;21805;51.022;4.782;2023-08-21T03:58:42;11.75;;;2.65;;
35681;SDS011;21805;51.022;4.782;2023-08-21T04:01:09;8.07;;;2.47;;
35681;SDS011;21805;51.022;4.782;2023-08-21T04:06:06;9.38;;;2.45;;
35681;SDS011;21805;51.022;4.782;2023-08-21T04:08:32;8.35;;;2.45;;
35681;SDS011;21805;51.022;4.782;2023-08-21T04:11:01;14.45;;;2.63;;
35681;SDS011;21805;51.022;4.782;2023-08-21T04:13:28;12.20;;;2.70;;
35681;SDS011;21805;51.022;4.782;2023-08-21T04:15:57;11.20;;;2.47;;
35681;SDS011;21805;51.022;4.782;2023-08-21T04:20:52;13.00;;;2.92;;
35681;SDS011;21805;51.022;4.782;2023-08-21T04:23:21;11.85;;;2.90;;
35681;SDS011;21805;51.022;4.782;2023-08-21T04:25:50;10.82;;;2.97;;
35681;SDS011;21805;51.022;4.782;2023-08-21T04:28:16;11.85;;;3.08;;
35681;SDS011;21805;51.022;4.782;2023-08-21T04:30:42;11.90;;;2.72;;
35681;SDS011;21805;51.022;4.782;2023-08-21T04:33:08;10.82;;;2.85;;
35681;SDS011;21805;51.022;4.782;2023-08-21T04:35:42;13.52;;;3.10;;
35681;SDS011;21805;51.022;4.782;2023-08-21T04:38:08;12.90;;;2.50;;
35681;SDS011;21805;51.022;4.782;2023-08-21T04:40:36;12.20;;;2.97;;
35681;SDS011;21805;51.022;4.782;2023-08-21T04:43:03;8.85;;;2.78;;
35681;SDS011;21805;51.022;4.782;2023-08-21T04:45:29;16.42;;;3.10;;
35681;SDS011;21805;51.022;4.782;2023-08-21T04:47:58;14.90;;;2.80;;
35681;SDS011;21805;51.022;4.782;2023-08-21T04:50:28;10.88;;;3.10;;
35681;SDS011;21805;51.022;4.782;2023-08-21T04:52:56;9.25;;;3.20;;
35681;SDS011;21805;51.022;4.782;2023-08-21T04:55:25;12.48;;;2.92;;
35681;SDS011;21805;51.022;4.782;2023-08-21T04:57:51;11.23;;;2.95;;
35681;SDS011;21805;51.022;4.782;2023-08-21T05:00:18;11.10;;;3.05;;
35681;SDS011;21805;51.022;4.782;2023-08-21T05:05:13;7.50;;;2.60;;
35681;SDS011;21805;51.022;4.782;2023-08-21T05:10:11;11.60;;;3.05;;
35681;SDS011;21805;51.022;4.782;2023-08-21T05:12:43;6.47;;;2.42;;
35681;SDS011;21805;51.022;4.782;2023-08-21T05:15:14;12.32;;;2.80;;
35681;SDS011;21805;51.022;4.782;2023-08-21T05:17:41;12.35;;;2.75;;
35681;SDS011;21805;51.022;4.782;2023-08-21T05:20:12;11.60;;;2.45;;
35681;SDS011;21805;51.022;4.782;2023-08-21T05:22:43;7.80;;;2.60;;
35681;SDS011;21805;51.022;4.782;2023-08-21T05:30:09;10.45;;;2.97;;
35681;SDS011;21805;51.022;4.782;2023-08-21T05:35:06;10.43;;;2.47;;
35681;SDS011;21805;51.022;4.782;2023-08-21T05:37:35;7.70;;;2.40;;
35681;SDS011;21805;51.022;4.782;2023-08-21T05:40:24;6.22;;;2.60;;
35681;SDS011;21805;51.022;4.782;2023-08-21T06:04:59;13.45;;;2.85;;
35681;SDS011;21805;51.022;4.782;2023-08-21T15:27:44;5.85;;;1.80;;
35681;SDS011;21805;51.022;4.782;2023-08-21T15:31:10;6.68;;;1.50;;
35681;SDS011;21805;51.022;4.782;2023-08-21T15:33:46;5.75;;;1.92;;
35681;SDS011;21805;51.022;4.782;2023-08-21T15:36:23;9.20;;;1.50;;
35681;SDS011;21805;51.022;4.782;2023-08-21T18:23:25;3.45;;;1.40;;
35681;SDS011;21805;51.022;4.782;2023-08-21T18:26:03;7.90;;;1.65;;
35681;SDS011;21805;51.022;4.782;2023-08-21T18:28:32;7.72;;;1.63;;
35681;SDS011;21805;51.022;4.782;2023-08-21T18:33:53;5.80;;;1.70;;
35681;SDS011;21805;51.022;4.782;2023-08-21T18:36:22;4.30;;;1.33;;
35681;SDS011;21805;51.022;4.782;2023-08-21T18:39:09;3.83;;;1.52;;
35681;SDS011;21805;51.022;4.782;2023-08-21T18:41:37;6.82;;;1.50;;
35681;SDS011;21805;51.022;4.782;2023-08-21T18:44:20;3.80;;;1.30;;
35681;SDS011;21805;51.022;4.782;2023-08-21T18:49:36;5.90;;;1.65;;
35681;SDS011;21805;51.022;4.782;2023-08-21T18:52:07;13.80;;;1.60;;
35681;SDS011;21805;51.022;4.782;2023-08-21T18:54:37;5.68;;;1.40;;
35681;SDS011;21805;51.022;4.782;2023-08-21T18:57:12;5.93;;;1.52;;
35681;SDS011;21805;51.022;4.782;2023-08-21T18:59:44;7.07;;;1.50;;
35681;SDS011;21805;51.022;4.782;2023-08-21T21:29:53;10.88;;;2.30;;
35681;SDS011;21805;51.022;4.782;2023-08-21T21:32:37;5.63;;;2.10;;
35681;SDS011;21805;51.022;4.782;2023-08-21T21:35:15;4.50;;;1.92;;
35681;SDS011;21805;51.022;4.782;2023-08-21T21:37:47;8.65;;;2.35;;
35681;SDS011;21805;51.022;4.782;2023-08-21T21:40:18;8.60;;;2.47;;
35681;SDS011;21805;51.022;4.782;2023-08-21T21:45:33;7.15;;;2.40;;
